Time;durP1;ratioP1;P1;durP2;ratioP2;P2;SDS_P1;SDS_P2;PMS_P1;PMS_P2;Temp;Humidity;BMP_temperature;BMP_pressure;BME280_temperature;BME280_humidity;BME280_pressure;Samples;Min_cycle;Max_cycle;Signal;HPM_P1;HPM_P2
2020/12/31 00:02:09;;;;;;;38.40;30.85;;;7.10;99.90;;;;;;5030853;28;20013;-76
2020/12/31 00:04:35;;;;;;;38.13;28.73;;;7.00;99.90;;;;;;5029871;28;20025;-75
2020/12/31 00:07:02;;;;;;;35.42;30.48;;;7.10;99.90;;;;;;5028261;28;20030;-76
2020/12/31 00:09:27;;;;;;;40.22;30.52;;;7.00;99.90;;;;;;5034433;28;20021;-74
2020/12/31 00:11:53;;;;;;;35.13;29.85;;;7.10;99.90;;;;;;5033116;28;20022;-75
2020/12/31 00:14:19;;;;;;;37.03;30.10;;;7.10;99.90;;;;;;5034043;28;20335;-75
2020/12/31 00:16:45;;;;;;;34.22;30.63;;;7.10;99.90;;;;;;5032452;28;20499;-75
2020/12/31 00:19:12;;;;;;;32.55;28.10;;;7.10;99.90;;;;;;5032488;28;20029;-78
2020/12/31 00:21:38;;;;;;;34.05;30.65;;;7.20;99.90;;;;;;5033972;28;20029;-75
2020/12/31 00:24:06;;;;;;;36.80;30.77;;;7.10;99.90;;;;;;5033398;28;20302;-75
2020/12/31 00:26:32;;;;;;;38.30;30.95;;;7.30;99.90;;;;;;5032808;28;20121;-74
2020/12/31 00:28:58;;;;;;;37.13;28.05;;;7.40;99.90;;;;;;5031857;28;20583;-75
2020/12/31 00:31:24;;;;;;;32.35;28.55;;;7.40;99.90;;;;;;5030767;28;20033;-75
2020/12/31 00:33:50;;;;;;;37.08;30.55;;;7.30;99.90;;;;;;5031423;28;20473;-75
2020/12/31 00:36:16;;;;;;;33.20;29.58;;;7.30;99.90;;;;;;5031631;28;20044;-75
2020/12/31 00:38:41;;;;;;;37.78;31.17;;;7.30;99.90;;;;;;5031986;28;20021;-75
2020/12/31 00:41:09;;;;;;;37.55;30.95;;;7.30;99.90;;;;;;5033071;28;20033;-75
2020/12/31 00:43:34;;;;;;;35.15;28.58;;;7.40;99.90;;;;;;5025823;28;20068;-75
2020/12/31 00:46:00;;;;;;;34.70;28.52;;;7.40;99.90;;;;;;5029339;28;20025;-75
2020/12/31 00:48:26;;;;;;;34.05;29.70;;;7.40;99.90;;;;;;5029571;28;20107;-75
2020/12/31 00:50:52;;;;;;;33.13;27.58;;;7.40;99.90;;;;;;5032467;28;20021;-75
2020/12/31 00:53:18;;;;;;;31.52;28.40;;;7.40;99.90;;;;;;5031629;28;20408;-76
2020/12/31 00:55:44;;;;;;;33.88;25.75;;;7.30;99.90;;;;;;5031505;28;20021;-75
2020/12/31 00:58:10;;;;;;;30.98;23.52;;;7.30;99.90;;;;;;5033026;28;20026;-76
2020/12/31 01:00:36;;;;;;;18.48;16.48;;;7.20;99.90;;;;;;5029820;28;20109;-76
2020/12/31 01:03:05;;;;;;;8.82;7.88;;;7.10;99.90;;;;;;5032051;28;20033;-75
2020/12/31 01:05:31;;;;;;;7.20;6.55;;;7.30;99.90;;;;;;5028300;28;20053;-73
2020/12/31 01:07:57;;;;;;;7.72;6.95;;;7.40;99.90;;;;;;5019338;28;20117;-74
2020/12/31 01:10:23;;;;;;;7.97;6.43;;;7.40;99.90;;;;;;5032412;28;20075;-73
2020/12/31 01:12:48;;;;;;;6.22;5.60;;;7.50;99.90;;;;;;5032602;28;20044;-76
2020/12/31 01:15:14;;;;;;;8.55;7.75;;;7.40;99.90;;;;;;5033115;28;20060;-76
2020/12/31 01:17:40;;;;;;;8.75;7.65;;;7.40;99.90;;;;;;5032390;28;20489;-76
2020/12/31 01:20:07;;;;;;;9.45;7.43;;;7.40;99.90;;;;;;5032644;28;20048;-75
2020/12/31 01:22:33;;;;;;;8.32;7.47;;;7.40;99.90;;;;;;5032327;28;20079;-76
2020/12/31 01:24:59;;;;;;;11.55;9.65;;;7.50;99.90;;;;;;5032502;28;20030;-75
2020/12/31 01:27:25;;;;;;;16.52;14.82;;;7.50;99.90;;;;;;5031508;28;20022;-76
2020/12/31 01:29:50;;;;;;;18.77;16.30;;;7.40;99.90;;;;;;5031807;28;20045;-76
2020/12/31 01:32:21;;;;;;;12.57;11.27;;;7.40;99.90;;;;;;5032071;28;20075;-75
2020/12/31 01:34:48;;;;;;;12.60;10.73;;;7.40;99.90;;;;;;5031032;28;20025;-77
2020/12/31 01:37:22;;;;;;;16.23;11.98;;;7.60;99.90;;;;;;5031577;28;20040;-75
2020/12/31 01:39:49;;;;;;;19.17;15.23;;;7.60;99.90;;;;;;5033193;28;20060;-76
2020/12/31 01:42:15;;;;;;;10.20;9.15;;;7.70;99.90;;;;;;5023810;28;20044;-73
2020/12/31 01:44:41;;;;;;;9.73;8.38;;;7.60;99.90;;;;;;5032011;28;20060;-75
2020/12/31 01:47:10;;;;;;;2.75;2.55;;;7.60;99.90;;;;;;5023877;28;20033;-75
2020/12/31 01:49:37;;;;;;;4.28;3.38;;;7.70;99.90;;;;;;5031962;28;20033;-75
2020/12/31 01:52:03;;;;;;;3.50;3.20;;;7.80;99.90;;;;;;5032949;28;20049;-75
2020/12/31 01:54:29;;;;;;;3.67;3.10;;;7.80;99.90;;;;;;5032056;28;20033;-75
2020/12/31 01:56:57;;;;;;;3.65;3.38;;;7.70;99.90;;;;;;5031276;28;20040;-75
2020/12/31 01:59:24;;;;;;;2.72;2.30;;;7.80;99.90;;;;;;5031494;28;20095;-74
2020/12/31 02:01:51;;;;;;;5.30;3.70;;;7.80;99.90;;;;;;5029348;28;20775;-75
2020/12/31 02:04:17;;;;;;;9.25;6.00;;;7.90;99.90;;;;;;5033801;28;20025;-76
2020/12/31 02:06:44;;;;;;;7.75;5.75;;;7.90;99.90;;;;;;5026601;28;21212;-75
2020/12/31 02:09:11;;;;;;;7.85;3.85;;;8.00;99.90;;;;;;5032947;28;21717;-75
2020/12/31 02:11:38;;;;;;;4.38;3.60;;;8.10;99.90;;;;;;5031246;28;20354;-75
2020/12/31 02:14:04;;;;;;;4.90;4.20;;;8.00;99.90;;;;;;5035738;28;20392;-75
2020/12/31 02:16:35;;;;;;;5.63;3.95;;;8.00;99.90;;;;;;5035158;28;20033;-75
2020/12/31 02:19:07;;;;;;;3.05;2.53;;;8.00;99.90;;;;;;5035142;28;20481;-74
2020/12/31 02:21:35;;;;;;;2.88;1.80;;;8.00;99.90;;;;;;5036160;28;20029;-75
2020/12/31 02:24:06;;;;;;;1.48;1.38;;;8.00;99.90;;;;;;5035092;28;20043;-75
2020/12/31 02:26:35;;;;;;;1.58;1.48;;;8.00;99.90;;;;;;5034491;28;20034;-75
2020/12/31 02:29:01;;;;;;;1.27;1.20;;;7.90;99.90;;;;;;5035710;28;20065;-75
2020/12/31 02:31:28;;;;;;;1.92;1.73;;;7.90;99.90;;;;;;5035771;28;20124;-73
2020/12/31 02:33:56;;;;;;;2.08;1.85;;;7.90;99.90;;;;;;5031097;28;20075;-73
2020/12/31 02:36:24;;;;;;;1.60;1.35;;;7.80;99.90;;;;;;5033595;28;20051;-74
2020/12/31 02:38:51;;;;;;;2.35;2.15;;;7.80;99.90;;;;;;5036043;28;20465;-75
2020/12/31 02:41:17;;;;;;;2.10;1.85;;;7.80;99.90;;;;;;5035298;28;20056;-75
2020/12/31 02:43:43;;;;;;;1.92;1.73;;;7.80;99.90;;;;;;5034983;28;20025;-75
2020/12/31 02:46:15;;;;;;;1.98;1.70;;;7.80;99.90;;;;;;5027093;28;20061;-75
2020/12/31 02:48:42;;;;;;;2.15;1.75;;;7.90;99.90;;;;;;5035515;28;20044;-75
2020/12/31 02:51:08;;;;;;;1.83;1.63;;;7.90;99.90;;;;;;5034719;28;20032;-76
2020/12/31 02:53:34;;;;;;;1.83;1.55;;;7.80;99.90;;;;;;5035774;28;20024;-74
2020/12/31 02:56:01;;;;;;;1.70;1.60;;;7.80;99.90;;;;;;5033459;28;20041;-73
2020/12/31 02:58:27;;;;;;;1.80;1.70;;;7.90;99.90;;;;;;5029932;28;20125;-75
2020/12/31 03:00:53;;;;;;;1.90;1.80;;;8.00;99.90;;;;;;5032919;28;20049;-75
2020/12/31 03:03:18;;;;;;;1.58;1.33;;;8.00;99.90;;;;;;5034557;28;20139;-74
2020/12/31 03:05:44;;;;;;;1.45;1.35;;;8.10;99.90;;;;;;5027715;28;20034;-73
2020/12/31 03:08:10;;;;;;;2.15;2.05;;;8.10;99.90;;;;;;5023395;28;20040;-76
2020/12/31 03:10:36;;;;;;;1.20;1.08;;;8.10;99.90;;;;;;5035852;28;20029;-75
2020/12/31 03:13:02;;;;;;;1.85;1.75;;;8.10;99.90;;;;;;5035182;28;20064;-75
2020/12/31 03:15:28;;;;;;;1.70;1.60;;;8.10;99.90;;;;;;5034319;28;20025;-76
2020/12/31 03:17:54;;;;;;;1.80;1.70;;;8.10;99.90;;;;;;5035011;28;20100;-76
2020/12/31 03:20:19;;;;;;;1.60;1.48;;;8.10;99.90;;;;;;5035039;28;20507;-75
2020/12/31 03:22:45;;;;;;;1.80;1.70;;;8.10;99.90;;;;;;5034426;28;20025;-75
2020/12/31 03:25:11;;;;;;;1.77;1.67;;;8.10;99.90;;;;;;5032814;28;20025;-74
2020/12/31 03:27:37;;;;;;;1.85;1.63;;;8.10;99.90;;;;;;5026817;28;20116;-76
2020/12/31 03:30:04;;;;;;;1.50;1.38;;;8.20;99.90;;;;;;5035103;28;20377;-75
2020/12/31 03:32:30;;;;;;;1.45;1.35;;;8.20;99.90;;;;;;5031642;28;20017;-75
2020/12/31 03:34:56;;;;;;;1.80;1.65;;;8.30;99.90;;;;;;5032763;28;20133;-75
2020/12/31 03:37:25;;;;;;;1.65;1.50;;;8.20;99.90;;;;;;5033995;28;20091;-75
2020/12/31 03:39:51;;;;;;;1.85;1.73;;;8.20;99.90;;;;;;5034045;28;20021;-75
2020/12/31 03:42:17;;;;;;;1.55;1.45;;;8.20;99.90;;;;;;5034669;28;20033;-78
2020/12/31 03:44:43;;;;;;;1.60;1.50;;;8.20;99.90;;;;;;5033792;28;20022;-74
2020/12/31 03:47:08;;;;;;;1.17;1.08;;;8.10;99.90;;;;;;5034542;28;20049;-75
2020/12/31 03:49:34;;;;;;;1.75;1.63;;;8.00;99.90;;;;;;5033463;28;20072;-75
2020/12/31 03:52:00;;;;;;;1.48;1.38;;;7.90;99.90;;;;;;5031515;28;20013;-76
2020/12/31 03:54:26;;;;;;;1.40;1.30;;;8.00;99.90;;;;;;5033507;28;20374;-74
2020/12/31 03:56:52;;;;;;;1.83;1.50;;;7.90;99.90;;;;;;5034349;28;20041;-75
2020/12/31 03:59:18;;;;;;;2.70;1.52;;;7.90;99.90;;;;;;5032753;28;20481;-75
2020/12/31 04:01:45;;;;;;;1.50;1.40;;;7.80;99.90;;;;;;5033635;28;20022;-74
2020/12/31 04:04:11;;;;;;;1.75;1.55;;;7.80;99.90;;;;;;5033012;28;20033;-77
2020/12/31 04:06:37;;;;;;;1.60;1.50;;;7.70;99.90;;;;;;5032643;28;20033;-76
2020/12/31 04:09:03;;;;;;;2.00;1.80;;;7.80;99.90;;;;;;5033697;28;20071;-75
2020/12/31 04:11:29;;;;;;;2.08;1.88;;;7.80;99.90;;;;;;5034558;28;20017;-74
2020/12/31 04:13:55;;;;;;;1.40;1.30;;;7.70;99.90;;;;;;5032672;28;20104;-75
2020/12/31 04:16:21;;;;;;;1.27;1.20;;;7.70;99.90;;;;;;5032729;28;20553;-74
2020/12/31 04:18:47;;;;;;;2.42;2.08;;;7.70;99.90;;;;;;5033086;28;20029;-75
2020/12/31 04:21:14;;;;;;;1.58;1.48;;;7.70;99.90;;;;;;5033016;28;20021;-76
2020/12/31 04:23:40;;;;;;;1.80;1.65;;;7.70;99.90;;;;;;5034498;28;20076;-75
2020/12/31 04:26:10;;;;;;;2.50;2.08;;;7.70;99.90;;;;;;5030789;28;20035;-74
2020/12/31 04:28:37;;;;;;;1.88;1.77;;;7.70;99.90;;;;;;5026046;28;20025;-75
2020/12/31 04:31:03;;;;;;;2.45;2.25;;;7.80;99.90;;;;;;5034067;28;20045;-74
2020/12/31 04:33:29;;;;;;;1.73;1.63;;;7.80;99.90;;;;;;5030696;28;20386;-74
2020/12/31 04:35:55;;;;;;;1.58;1.48;;;7.80;99.90;;;;;;5032601;28;20029;-74
2020/12/31 04:38:21;;;;;;;3.35;1.58;;;7.80;99.90;;;;;;5033686;28;20055;-75
2020/12/31 04:40:47;;;;;;;1.27;1.17;;;7.80;99.90;;;;;;5032959;28;20116;-76
2020/12/31 04:43:14;;;;;;;1.33;1.23;;;7.90;99.90;;;;;;5032070;28;20092;-76
2020/12/31 04:45:42;;;;;;;3.90;2.00;;;7.90;99.90;;;;;;5030273;28;20041;-75
2020/12/31 04:48:27;;;;;;;1.02;1.02;;;7.90;99.90;;;;;;5030070;28;20076;-75
2020/12/31 04:50:55;;;;;;;1.48;1.38;;;7.90;99.90;;;;;;5031930;28;20021;-75
2020/12/31 04:53:23;;;;;;;1.95;1.45;;;7.90;99.90;;;;;;5032576;28;20021;-75
2020/12/31 04:55:49;;;;;;;1.40;1.30;;;7.90;99.90;;;;;;5029668;28;20112;-73
2020/12/31 04:58:16;;;;;;;2.40;2.08;;;7.90;99.90;;;;;;5024331;28;20028;-75
2020/12/31 05:00:44;;;;;;;1.52;1.42;;;7.90;99.90;;;;;;5032554;28;20026;-75
2020/12/31 05:03:10;;;;;;;1.75;1.65;;;8.00;99.90;;;;;;5031787;28;20022;-74
2020/12/31 05:05:37;;;;;;;1.20;1.10;;;8.00;99.90;;;;;;5030865;28;20120;-75
2020/12/31 05:08:04;;;;;;;1.35;1.10;;;8.00;99.90;;;;;;5033312;28;20087;-74
2020/12/31 05:10:31;;;;;;;2.42;1.30;;;8.00;99.90;;;;;;5031241;28;20148;-76
2020/12/31 05:13:02;;;;;;;1.08;1.08;;;7.90;99.90;;;;;;5013942;28;20064;-75
2020/12/31 05:15:43;;;;;;;1.38;1.27;;;7.90;99.90;;;;;;5031952;28;20028;-75
2020/12/31 05:18:32;;;;;;;1.75;1.45;;;8.00;99.90;;;;;;5031474;28;20017;-74
2020/12/31 05:21:00;;;;;;;1.30;1.20;;;8.00;99.90;;;;;;5031892;28;20032;-74
2020/12/31 05:23:28;;;;;;;1.83;1.40;;;8.00;99.90;;;;;;5032180;28;20024;-75
2020/12/31 05:25:55;;;;;;;1.70;1.60;;;8.00;99.90;;;;;;5031419;28;20083;-74
2020/12/31 05:28:29;;;;;;;3.65;1.33;;;8.00;99.90;;;;;;5032689;28;20033;-74
2020/12/31 05:30:59;;;;;;;2.75;1.85;;;8.00;99.90;;;;;;5030178;28;20021;-74
2020/12/31 05:33:26;;;;;;;1.70;1.40;;;8.00;99.90;;;;;;5029665;28;20539;-73
2020/12/31 05:35:53;;;;;;;1.50;1.25;;;8.00;99.90;;;;;;5030503;28;20396;-74
2020/12/31 05:38:20;;;;;;;2.78;1.92;;;8.10;99.90;;;;;;5031193;28;20032;-77
2020/12/31 05:41:02;;;;;;;1.52;1.42;;;8.10;99.90;;;;;;5032605;28;20053;-74
2020/12/31 05:43:28;;;;;;;1.98;1.13;;;8.20;99.90;;;;;;5031355;28;20029;-74
2020/12/31 05:46:23;;;;;;;1.95;1.30;;;8.20;99.90;;;;;;5030376;28;20025;-74
2020/12/31 05:48:56;;;;;;;1.35;1.23;;;8.20;99.90;;;;;;5018862;28;20203;-74
2020/12/31 05:51:30;;;;;;;1.05;0.95;;;8.20;99.90;;;;;;5030629;28;20059;-74
2020/12/31 05:54:10;;;;;;;1.73;1.35;;;8.30;99.90;;;;;;5032264;28;20047;-75
2020/12/31 05:56:38;;;;;;;1.35;1.25;;;8.20;99.90;;;;;;5027417;28;20499;-74
2020/12/31 05:59:08;;;;;;;1.50;1.10;;;8.10;99.90;;;;;;5031116;28;20033;-75
2020/12/31 06:01:38;;;;;;;2.25;1.02;;;8.10;99.90;;;;;;5029665;28;20097;-75
2020/12/31 06:04:20;;;;;;;3.97;1.40;;;8.10;99.90;;;;;;5029649;28;20025;-75
2020/12/31 06:06:50;;;;;;;1.77;1.20;;;8.20;99.90;;;;;;5028893;28;20048;-75
2020/12/31 06:09:30;;;;;;;1.45;1.20;;;8.20;99.90;;;;;;5030639;28;20026;-75
2020/12/31 06:12:00;;;;;;;2.70;1.35;;;8.10;99.90;;;;;;5031949;28;20080;-75
2020/12/31 06:14:28;;;;;;;1.70;1.60;;;8.20;99.90;;;;;;5031445;28;20037;-76
2020/12/31 06:17:06;;;;;;;2.00;1.50;;;8.20;99.90;;;;;;5029099;28;20099;-74
2020/12/31 06:19:38;;;;;;;2.75;1.85;;;8.20;99.90;;;;;;5032596;28;20573;-75
2020/12/31 06:22:09;;;;;;;2.85;1.60;;;8.30;99.90;;;;;;5031789;28;20033;-75
2020/12/31 06:24:39;;;;;;;5.20;1.50;;;8.30;99.90;;;;;;5031169;28;20128;-75
2020/12/31 06:27:31;;;;;;;1.50;1.40;;;8.20;99.90;;;;;;5031100;28;20432;-75
2020/12/31 06:29:59;;;;;;;1.55;1.13;;;8.20;99.90;;;;;;5031858;28;20035;-76
2020/12/31 06:32:31;;;;;;;3.75;1.80;;;8.20;99.90;;;;;;5028598;28;20034;-74
2020/12/31 06:35:09;;;;;;;1.35;1.10;;;8.10;99.90;;;;;;5031157;28;20036;-76
2020/12/31 06:37:35;;;;;;;1.80;1.17;;;8.00;99.90;;;;;;5029719;28;20087;-74
2020/12/31 06:40:23;;;;;;;4.00;2.00;;;8.10;99.90;;;;;;5032348;28;20018;-74
2020/12/31 06:43:11;;;;;;;5.20;1.67;;;8.00;99.90;;;;;;5031939;28;20029;-75
2020/12/31 06:45:45;;;;;;;1.95;1.35;;;8.00;99.90;;;;;;5030140;28;20033;-74
2020/12/31 06:48:26;;;;;;;1.75;1.33;;;8.10;99.90;;;;;;5028367;28;20037;-73
2020/12/31 06:51:11;;;;;;;2.75;1.23;;;8.10;99.90;;;;;;5033411;28;20026;-76
2020/12/31 06:53:45;;;;;;;2.90;1.92;;;8.10;99.90;;;;;;5035778;28;20022;-77
2020/12/31 06:56:15;;;;;;;2.83;1.70;;;8.10;99.90;;;;;;5031279;28;20502;-75
2020/12/31 06:58:43;;;;;;;1.63;1.38;;;8.10;99.90;;;;;;5033849;28;20035;-74
2020/12/31 07:01:29;;;;;;;2.50;2.00;;;8.10;99.90;;;;;;5028579;28;20429;-76
2020/12/31 07:03:56;;;;;;;6.03;1.35;;;8.10;99.90;;;;;;5028419;28;20107;-74
2020/12/31 07:06:29;;;;;;;2.25;1.40;;;8.20;99.90;;;;;;5034436;28;20021;-74
2020/12/31 07:09:23;;;;;;;1.67;1.30;;;8.20;99.90;;;;;;5028173;28;20033;-75
2020/12/31 07:11:57;;;;;;;1.50;1.27;;;8.20;99.90;;;;;;5026050;28;20033;-74
2020/12/31 07:14:25;;;;;;;1.88;1.50;;;8.20;99.90;;;;;;5024932;28;20547;-75
2020/12/31 07:17:02;;;;;;;1.38;1.27;;;8.20;99.90;;;;;;5034307;28;20099;-74
2020/12/31 07:19:45;;;;;;;1.50;1.40;;;8.20;99.90;;;;;;5035555;28;20515;-74
2020/12/31 07:22:10;;;;;;;1.77;1.27;;;8.20;99.90;;;;;;5034625;28;20029;-74
2020/12/31 07:24:49;;;;;;;1.50;1.40;;;8.20;99.90;;;;;;5033757;28;20033;-73
2020/12/31 07:27:29;;;;;;;1.40;1.25;;;8.20;99.90;;;;;;5028093;28;20033;-73
2020/12/31 07:30:08;;;;;;;3.58;1.35;;;8.20;99.90;;;;;;5034307;28;20017;-73
2020/12/31 07:32:59;;;;;;;1.38;1.02;;;8.20;99.90;;;;;;5033989;28;20034;-74
2020/12/31 07:35:27;;;;;;;2.20;1.23;;;8.20;99.90;;;;;;5028062;28;20097;-75
2020/12/31 07:38:02;;;;;;;1.27;1.10;;;8.20;99.90;;;;;;5034618;28;20493;-74
2020/12/31 07:40:37;;;;;;;2.20;1.58;;;8.20;99.90;;;;;;5034010;28;20025;-74
2020/12/31 07:43:05;;;;;;;1.55;1.30;;;8.10;99.90;;;;;;5038168;28;20048;-74
2020/12/31 07:45:31;;;;;;;1.42;1.33;;;8.10;99.90;;;;;;5033226;28;20021;-75
2020/12/31 07:47:58;;;;;;;1.73;1.60;;;8.20;99.90;;;;;;5032649;28;20041;-76
2020/12/31 07:50:24;;;;;;;2.05;1.67;;;8.20;99.90;;;;;;5034707;28;20033;-75
2020/12/31 07:52:51;;;;;;;2.80;1.95;;;8.30;99.90;;;;;;5032781;28;20040;-73
2020/12/31 07:55:17;;;;;;;1.75;1.00;;;8.30;99.90;;;;;;5033462;28;20047;-74
2020/12/31 07:57:43;;;;;;;1.48;1.38;;;8.30;99.90;;;;;;5033237;28;20067;-73
2020/12/31 08:00:21;;;;;;;1.50;1.40;;;8.40;99.90;;;;;;5032323;28;20489;-76
2020/12/31 08:02:49;;;;;;;1.70;1.10;;;8.50;99.90;;;;;;5029830;28;20481;-74
2020/12/31 08:05:17;;;;;;;2.58;2.38;;;8.40;99.90;;;;;;5033015;28;20515;-74
2020/12/31 08:07:44;;;;;;;2.15;1.30;;;8.50;99.90;;;;;;5033784;28;20075;-74
2020/12/31 08:10:11;;;;;;;2.08;1.88;;;8.50;99.90;;;;;;5026260;28;20029;-73
2020/12/31 08:12:40;;;;;;;3.75;1.70;;;8.60;99.90;;;;;;5026620;28;20449;-74
2020/12/31 08:15:07;;;;;;;2.60;1.30;;;8.60;99.90;;;;;;5033256;28;20033;-75
2020/12/31 08:17:33;;;;;;;3.25;1.83;;;8.60;99.90;;;;;;5034004;28;20021;-74
2020/12/31 08:20:01;;;;;;;2.47;1.80;;;8.70;99.90;;;;;;5033061;28;20056;-74
2020/12/31 08:22:30;;;;;;;2.42;1.73;;;8.80;99.90;;;;;;5027378;28;20108;-74
2020/12/31 08:25:19;;;;;;;1.67;1.35;;;8.90;99.90;;;;;;5030587;28;20030;-73
2020/12/31 08:27:46;;;;;;;3.10;1.20;;;9.00;99.90;;;;;;5033397;28;20017;-73
2020/12/31 08:30:12;;;;;;;6.97;1.77;;;9.00;99.90;;;;;;5032565;28;20026;-73
2020/12/31 08:32:50;;;;;;;1.35;1.25;;;9.00;99.90;;;;;;5030521;28;20018;-73
2020/12/31 08:35:20;;;;;;;1.80;1.10;;;9.10;99.90;;;;;;5027068;28;20068;-74
2020/12/31 08:37:55;;;;;;;2.00;1.60;;;9.10;99.90;;;;;;5032854;28;20087;-75
2020/12/31 08:40:21;;;;;;;2.08;1.35;;;9.10;99.90;;;;;;5033550;28;20041;-74
2020/12/31 08:42:54;;;;;;;2.08;1.98;;;9.20;99.90;;;;;;5031264;28;20032;-74
2020/12/31 08:45:24;;;;;;;2.58;1.95;;;9.30;99.90;;;;;;5032002;28;20036;-74
2020/12/31 08:47:50;;;;;;;3.75;2.15;;;9.50;99.90;;;;;;5032255;28;20495;-75
2020/12/31 08:50:16;;;;;;;3.60;1.98;;;9.60;99.90;;;;;;5033269;28;20049;-75
2020/12/31 08:52:42;;;;;;;1.65;1.55;;;9.50;99.90;;;;;;5030868;28;20033;-75
2020/12/31 08:55:10;;;;;;;1.30;1.17;;;9.60;99.90;;;;;;5029478;28;20386;-69
2020/12/31 08:57:36;;;;;;;0.95;0.93;;;9.50;99.90;;;;;;5020037;28;20606;-68
2020/12/31 09:00:04;;;;;;;3.83;2.83;;;9.60;99.90;;;;;;5032561;28;20033;-69
2020/12/31 09:02:30;;;;;;;4.03;3.17;;;9.60;99.90;;;;;;5032611;28;20091;-69
2020/12/31 09:05:13;;;;;;;1.30;1.20;;;9.70;99.90;;;;;;5021622;28;20033;-69
2020/12/31 09:07:39;;;;;;;2.05;1.73;;;9.90;99.90;;;;;;5012025;28;20026;-69
2020/12/31 09:10:18;;;;;;;1.70;1.40;;;10.10;99.90;;;;;;5012561;28;20033;-69
2020/12/31 09:12:45;;;;;;;2.63;1.50;;;10.10;99.90;;;;;;5012922;28;20370;-69
2020/12/31 09:15:20;;;;;;;2.75;1.15;;;10.00;99.90;;;;;;5026117;28;20021;-69
2020/12/31 09:17:46;;;;;;;1.67;1.40;;;9.90;99.90;;;;;;5033118;28;20577;-69
2020/12/31 09:20:26;;;;;;;2.90;1.65;;;9.90;99.90;;;;;;5032492;28;20499;-68
2020/12/31 09:22:52;;;;;;;4.65;1.80;;;9.80;99.90;;;;;;5031166;28;20032;-69
2020/12/31 09:25:20;;;;;;;2.90;2.60;;;9.80;99.90;;;;;;5018803;28;20033;-73
2020/12/31 09:27:46;;;;;;;2.10;1.40;;;9.80;99.90;;;;;;5013260;28;20486;-74
2020/12/31 09:30:15;;;;;;;1.15;1.10;;;9.90;99.90;;;;;;5014156;28;20052;-74
2020/12/31 09:32:45;;;;;;;2.03;1.40;;;10.10;99.90;;;;;;5012801;28;20014;-75
2020/12/31 09:35:12;;;;;;;3.92;1.70;;;10.30;99.90;;;;;;5025563;28;20018;-74
2020/12/31 09:37:45;;;;;;;3.83;1.60;;;10.30;99.90;;;;;;5034861;28;20064;-73
2020/12/31 09:40:11;;;;;;;2.50;1.92;;;10.30;99.90;;;;;;5035395;28;20021;-74
2020/12/31 09:42:37;;;;;;;1.48;1.38;;;10.20;99.90;;;;;;5033672;28;20026;-74
2020/12/31 09:45:05;;;;;;;1.98;1.75;;;10.20;99.90;;;;;;5023742;28;20026;-74
2020/12/31 09:47:31;;;;;;;4.85;1.60;;;10.20;99.90;;;;;;5012601;28;20114;-74
2020/12/31 09:49:57;;;;;;;1.70;1.60;;;10.20;99.90;;;;;;5012236;28;20121;-75
2020/12/31 09:52:23;;;;;;;2.08;1.70;;;10.40;99.90;;;;;;5012788;28;20049;-74
2020/12/31 09:54:52;;;;;;;1.52;1.42;;;10.40;99.90;;;;;;5023306;28;20105;-71
2020/12/31 09:57:18;;;;;;;3.03;1.52;;;10.20;99.90;;;;;;5019103;28;20026;-73
2020/12/31 09:59:44;;;;;;;3.83;2.22;;;10.20;99.90;;;;;;5014361;28;20080;-73
2020/12/31 10:02:10;;;;;;;2.72;2.13;;;10.10;99.90;;;;;;5012328;28;20030;-73
2020/12/31 10:04:36;;;;;;;2.85;1.92;;;10.10;99.90;;;;;;5019490;28;20053;-74
2020/12/31 10:07:02;;;;;;;3.85;2.38;;;10.00;99.90;;;;;;5031016;28;20068;-73
2020/12/31 10:09:28;;;;;;;3.45;1.60;;;10.10;99.90;;;;;;5031486;28;20056;-74
2020/12/31 10:11:55;;;;;;;4.20;1.70;;;10.10;99.90;;;;;;5031486;28;20024;-74
2020/12/31 10:14:21;;;;;;;3.78;1.55;;;9.90;99.90;;;;;;5024300;28;20079;-74
2020/12/31 10:16:49;;;;;;;3.13;2.28;;;9.90;99.90;;;;;;5009388;28;20018;-73
2020/12/31 10:19:14;;;;;;;2.33;2.13;;;9.90;99.90;;;;;;5012034;28;20033;-73
2020/12/31 10:21:43;;;;;;;2.53;1.85;;;10.10;99.90;;;;;;5012189;28;20109;-74
2020/12/31 10:24:09;;;;;;;2.50;2.20;;;10.30;99.90;;;;;;5015479;28;20032;-73
2020/12/31 10:26:35;;;;;;;4.90;2.50;;;10.50;99.90;;;;;;5035422;28;20029;-73
2020/12/31 10:29:01;;;;;;;4.57;2.42;;;10.60;99.90;;;;;;5035690;28;20049;-76
2020/12/31 10:31:27;;;;;;;3.13;1.98;;;10.70;99.90;;;;;;5035681;28;20017;-75
2020/12/31 10:33:52;;;;;;;4.30;2.10;;;10.70;99.90;;;;;;5035411;28;20036;-73
2020/12/31 10:36:18;;;;;;;2.28;1.90;;;10.40;99.90;;;;;;5035617;28;20037;-73
2020/12/31 10:38:45;;;;;;;5.78;3.03;;;10.20;99.90;;;;;;5035978;28;20026;-75
2020/12/31 10:41:13;;;;;;;3.45;2.63;;;10.10;99.90;;;;;;5035508;28;20029;-72
2020/12/31 10:43:39;;;;;;;2.45;2.20;;;10.10;99.90;;;;;;5034354;28;20442;-73
2020/12/31 10:46:05;;;;;;;3.00;2.38;;;10.10;99.90;;;;;;5033111;28;20041;-72
2020/12/31 10:48:31;;;;;;;2.97;2.53;;;10.10;99.90;;;;;;5035378;28;20029;-72
2020/12/31 10:51:00;;;;;;;2.30;2.10;;;10.10;99.90;;;;;;5032414;28;20022;-73
2020/12/31 10:53:26;;;;;;;6.68;4.60;;;10.10;99.90;;;;;;5015938;28;20018;-73
2020/12/31 10:55:54;;;;;;;4.85;3.15;;;10.20;99.90;;;;;;5015457;28;20022;-73
2020/12/31 10:58:20;;;;;;;2.85;2.25;;;10.20;99.90;;;;;;5019365;28;20035;-72
2020/12/31 11:00:46;;;;;;;3.70;2.58;;;10.30;99.90;;;;;;5027714;28;20037;-75
2020/12/31 11:03:11;;;;;;;2.63;2.15;;;10.30;99.90;;;;;;5034979;28;20025;-73
2020/12/31 11:05:37;;;;;;;2.47;1.90;;;10.10;99.90;;;;;;5033332;28;20079;-72
2020/12/31 11:08:03;;;;;;;4.32;2.63;;;10.10;99.90;;;;;;5034603;28;20021;-73
2020/12/31 11:10:30;;;;;;;4.03;1.98;;;10.10;99.90;;;;;;5033273;28;20392;-72
2020/12/31 11:12:56;;;;;;;2.45;1.83;;;10.10;99.90;;;;;;5034864;28;20021;-72
2020/12/31 11:15:22;;;;;;;4.75;1.73;;;10.10;99.90;;;;;;5034452;28;20021;-72
2020/12/31 11:17:47;;;;;;;2.33;2.13;;;10.10;99.90;;;;;;5034014;28;20022;-73
2020/12/31 11:20:13;;;;;;;5.35;1.95;;;9.90;99.90;;;;;;5015488;28;20022;-76
2020/12/31 11:22:39;;;;;;;3.70;2.50;;;9.90;99.90;;;;;;5015459;28;20026;-74
2020/12/31 11:25:05;;;;;;;2.63;2.05;;;10.10;99.90;;;;;;5017493;28;20671;-74
2020/12/31 11:27:31;;;;;;;3.90;2.10;;;10.20;99.90;;;;;;5026973;28;20025;-74
2020/12/31 11:29:56;;;;;;;5.25;2.75;;;10.30;99.90;;;;;;5037841;28;20488;-74
2020/12/31 11:32:22;;;;;;;3.97;2.67;;;10.40;99.90;;;;;;5035037;28;20026;-73
2020/12/31 11:34:48;;;;;;;4.10;3.05;;;10.50;99.90;;;;;;5034808;28;20393;-74
2020/12/31 11:37:14;;;;;;;3.42;2.78;;;10.60;99.90;;;;;;5030096;28;20026;-73
2020/12/31 11:39:39;;;;;;;3.72;2.42;;;10.60;99.90;;;;;;5013836;28;20034;-73
2020/12/31 11:42:05;;;;;;;3.35;2.25;;;10.60;99.90;;;;;;5024662;28;20121;-74
2020/12/31 11:44:31;;;;;;;4.05;2.33;;;10.60;99.90;;;;;;5034981;28;20029;-74
2020/12/31 11:47:00;;;;;;;2.60;2.40;;;10.60;99.90;;;;;;5033532;28;20033;-73
2020/12/31 11:49:26;;;;;;;2.78;1.70;;;10.50;99.90;;;;;;5015089;28;20084;-73
2020/12/31 11:51:58;;;;;;;1.67;1.58;;;10.30;99.90;;;;;;5015335;28;20025;-74
2020/12/31 11:54:25;;;;;;;3.33;2.22;;;10.20;99.90;;;;;;5013080;28;20026;-74
2020/12/31 11:56:51;;;;;;;3.58;1.95;;;10.30;99.90;;;;;;5014809;28;20057;-73
2020/12/31 11:59:17;;;;;;;3.67;1.63;;;10.40;99.90;;;;;;5034601;28;20031;-74
2020/12/31 12:01:50;;;;;;;3.05;1.70;;;10.30;99.90;;;;;;5034579;28;20036;-75
2020/12/31 12:04:17;;;;;;;1.83;1.73;;;10.40;99.90;;;;;;5033227;28;20028;-76
2020/12/31 12:06:50;;;;;;;3.00;1.90;;;10.60;99.90;;;;;;5034611;28;20465;-73
2020/12/31 12:09:17;;;;;;;2.47;1.83;;;10.70;99.90;;;;;;5014085;28;20370;-74
2020/12/31 12:11:43;;;;;;;4.35;3.70;;;10.60;99.90;;;;;;5014724;28;20022;-74
2020/12/31 12:14:09;;;;;;;4.43;1.85;;;10.60;99.90;;;;;;5014537;28;20029;-74
2020/12/31 12:16:35;;;;;;;1.83;1.52;;;10.60;99.90;;;;;;5014939;28;20132;-74
2020/12/31 12:19:00;;;;;;;1.77;1.58;;;10.50;99.90;;;;;;5030797;28;20108;-74
2020/12/31 12:21:26;;;;;;;3.30;2.05;;;10.30;99.90;;;;;;5015524;28;20065;-75
2020/12/31 12:23:52;;;;;;;1.00;1.00;;;10.20;99.90;;;;;;5014472;28;20026;-73
2020/12/31 12:26:18;;;;;;;1.75;1.65;;;10.20;99.90;;;;;;5013460;28;20183;-74
2020/12/31 12:28:44;;;;;;;5.28;2.35;;;10.10;99.90;;;;;;5027714;28;20033;-74
2020/12/31 12:31:09;;;;;;;2.28;1.83;;;10.10;99.90;;;;;;5034047;28;20049;-74
2020/12/31 12:33:35;;;;;;;2.50;2.17;;;10.00;99.90;;;;;;5033937;28;20025;-74
2020/12/31 12:36:01;;;;;;;4.22;2.95;;;10.20;99.90;;;;;;5033305;28;20029;-76
2020/12/31 12:38:27;;;;;;;3.25;2.33;;;10.50;99.90;;;;;;5022252;28;20037;-75
2020/12/31 12:40:53;;;;;;;2.78;2.20;;;10.60;99.90;;;;;;5013992;28;20088;-74
2020/12/31 12:43:19;;;;;;;2.25;2.05;;;10.80;99.90;;;;;;5012287;28;20045;-74
2020/12/31 12:45:44;;;;;;;3.78;2.45;;;10.70;99.90;;;;;;5013471;28;20041;-73
2020/12/31 12:48:10;;;;;;;4.07;3.20;;;10.60;99.90;;;;;;5022298;28;20396;-74
2020/12/31 12:50:36;;;;;;;2.55;2.03;;;10.60;99.90;;;;;;5034196;28;20029;-74
2020/12/31 12:53:02;;;;;;;2.22;1.63;;;10.60;99.90;;;;;;5033341;28;20128;-75
2020/12/31 12:55:28;;;;;;;3.00;1.73;;;10.60;99.90;;;;;;5033403;28;20029;-75
2020/12/31 12:57:54;;;;;;;1.67;1.55;;;10.60;99.90;;;;;;5026879;28;20069;-74
2020/12/31 13:00:20;;;;;;;2.13;1.63;;;10.60;99.90;;;;;;5013684;28;20018;-75